createdAt,value
2022-11-13T00:03:01.340Z,17.80
2022-11-13T00:06:22.061Z,17.60
2022-11-13T00:13:03.485Z,19.77
2022-11-13T00:16:24.079Z,15.85
2022-11-13T00:19:47.633Z,17.38
2022-11-13T00:23:08.142Z,14.82
2022-11-13T00:26:30.806Z,20.65
2022-11-13T00:29:51.361Z,19.92
2022-11-13T00:33:11.917Z,18.92
2022-11-13T00:36:32.503Z,18.55
2022-11-13T00:39:58.472Z,16.83
2022-11-13T00:46:40.811Z,20.10
2022-11-13T00:50:01.231Z,15.45
2022-11-13T00:53:22.319Z,15.05
2022-11-13T00:56:43.567Z,15.85
2022-11-13T01:00:04.991Z,15.00
2022-11-13T01:03:25.650Z,15.93
2022-11-13T01:06:46.299Z,16.08
2022-11-13T01:10:07.533Z,12.95
2022-11-13T01:13:27.783Z,13.10
2022-11-13T01:16:49.259Z,16.55
2022-11-13T01:20:10.481Z,14.15
2022-11-13T01:23:34.034Z,17.02
2022-11-13T01:26:55.506Z,15.70
2022-11-13T01:30:16.731Z,14.27
2022-11-13T01:33:37.911Z,14.05
2022-11-13T01:36:58.750Z,12.52
2022-11-13T01:40:19.164Z,13.30
2022-11-13T01:43:40.555Z,15.43
2022-11-13T01:47:02.071Z,15.07
2022-11-13T01:50:24.987Z,13.25
2022-11-13T01:53:47.799Z,13.60
2022-11-13T01:57:08.810Z,14.52
2022-11-13T02:00:29.202Z,13.60
2022-11-13T02:03:49.804Z,13.73
2022-11-13T02:07:14.700Z,13.27
2022-11-13T02:10:35.517Z,14.70
2022-11-13T02:13:57.218Z,12.50
2022-11-13T02:17:28.161Z,15.23
2022-11-13T02:21:01.979Z,12.77
2022-11-13T02:24:30.479Z,13.80
2022-11-13T02:27:52.958Z,14.75
2022-11-13T02:31:14.362Z,14.35
2022-11-13T02:34:34.976Z,15.40
2022-11-13T02:37:57.840Z,13.73
2022-11-13T02:41:19.363Z,14.40
2022-11-13T02:44:39.988Z,13.63
2022-11-13T02:48:01.357Z,13.00
2022-11-13T02:51:21.747Z,13.50
2022-11-13T02:54:42.292Z,14.63
2022-11-13T02:58:03.739Z,13.85
2022-11-13T03:01:24.299Z,12.55
2022-11-13T03:05:10.945Z,19.48
2022-11-13T03:08:26.060Z,13.63
2022-11-13T03:11:47.016Z,18.55
2022-11-13T03:15:08.627Z,12.50
2022-11-13T03:18:30.765Z,13.80
2022-11-13T03:21:51.520Z,13.43
2022-11-13T03:25:11.904Z,16.65
2022-11-13T03:28:32.997Z,15.65
2022-11-13T03:31:53.595Z,14.73
2022-11-13T03:35:14.315Z,15.50
2022-11-13T03:38:35.314Z,16.63
2022-11-13T03:41:58.107Z,16.95
2022-11-13T03:45:18.716Z,15.60
2022-11-13T03:48:39.239Z,14.75
2022-11-13T03:51:48.184Z,21.90
2022-11-13T03:58:29.739Z,25.95
2022-11-13T04:01:50.776Z,20.35
2022-11-13T04:08:32.376Z,15.23
2022-11-13T04:11:52.946Z,19.35
2022-11-13T04:15:13.362Z,20.73
2022-11-13T04:18:33.816Z,17.83
2022-11-13T04:21:55.351Z,21.27
2022-11-13T04:25:15.868Z,19.58
2022-11-13T04:28:36.397Z,20.80
2022-11-13T04:31:56.858Z,22.08
2022-11-13T04:35:17.467Z,20.88
2022-11-13T04:38:37.897Z,22.58
2022-11-13T04:41:58.303Z,20.92
2022-11-13T04:45:20.780Z,21.42
2022-11-13T04:48:41.280Z,20.88
2022-11-13T04:52:01.892Z,19.83
2022-11-13T04:55:22.209Z,19.55
2022-11-13T04:58:42.725Z,21.48
2022-11-13T05:02:03.562Z,18.50
2022-11-13T05:05:24.096Z,18.35
2022-11-13T05:08:44.690Z,18.98
2022-11-13T05:12:05.609Z,19.45
2022-11-13T05:15:26.687Z,22.67
2022-11-13T05:18:47.300Z,19.15
2022-11-13T05:22:07.896Z,18.25
2022-11-13T05:25:28.999Z,19.30
2022-11-13T05:32:12.241Z,22.73
2022-11-13T05:35:32.729Z,23.75
2022-11-13T05:38:53.314Z,22.88
2022-11-13T05:42:13.856Z,26.08
2022-11-13T05:45:34.362Z,21.98
2022-11-13T05:49:00.136Z,24.35
2022-11-13T05:52:20.927Z,29.48
2022-11-13T05:55:46.397Z,32.22
2022-11-13T05:59:06.980Z,23.83
2022-11-13T06:02:27.407Z,22.52
2022-11-13T06:05:48.023Z,27.92
2022-11-13T06:09:13.417Z,26.95
2022-11-13T06:12:33.780Z,26.77
2022-11-13T06:15:55.487Z,30.35
2022-11-13T06:19:15.937Z,31.80
2022-11-13T06:22:36.499Z,26.40
2022-11-13T06:26:01.848Z,28.98
2022-11-13T06:29:22.323Z,27.45
2022-11-13T06:32:42.729Z,24.77
2022-11-13T06:36:05.473Z,24.83
2022-11-13T06:39:26.533Z,22.08
2022-11-13T06:42:46.897Z,25.10
2022-11-13T06:46:13.535Z,23.02
2022-11-13T06:49:34.053Z,25.02
2022-11-13T06:52:55.242Z,22.75
2022-11-13T06:56:16.280Z,21.55
2022-11-13T06:59:38.625Z,22.73
2022-11-13T07:02:59.167Z,22.15
2022-11-13T07:06:23.137Z,23.92
2022-11-13T07:09:44.013Z,20.10
2022-11-13T07:13:04.949Z,21.70
2022-11-13T07:16:34.702Z,23.35
2022-11-13T07:20:07.871Z,19.25
2022-11-13T07:23:28.312Z,23.70
2022-11-13T07:26:48.813Z,22.58
2022-11-13T07:30:11.692Z,19.60
2022-11-13T07:33:37.266Z,22.58
2022-11-13T07:36:57.731Z,20.50
2022-11-13T07:40:18.522Z,19.17
2022-11-13T07:43:39.183Z,21.08
2022-11-13T07:47:05.678Z,19.58
2022-11-13T07:50:32.218Z,19.00
2022-11-13T07:53:53.004Z,20.00
2022-11-13T07:57:16.436Z,19.10
2022-11-13T08:00:37.002Z,16.92
2022-11-13T08:03:57.726Z,17.00
2022-11-13T08:07:18.366Z,15.43
2022-11-13T08:10:39.378Z,16.88
2022-11-13T08:14:00.033Z,16.45
2022-11-13T08:17:20.601Z,13.65
2022-11-13T08:20:41.305Z,14.70
2022-11-13T08:27:23.501Z,12.35
2022-11-13T08:30:45.336Z,15.38
2022-11-13T08:34:05.782Z,12.40
2022-11-13T08:37:26.186Z,12.38
2022-11-13T08:40:49.511Z,14.13
2022-11-13T08:44:10.367Z,18.63
2022-11-13T08:47:30.983Z,15.32
2022-11-13T08:50:55.664Z,14.13
2022-11-13T08:54:16.242Z,15.07
2022-11-13T08:57:36.744Z,15.13
2022-11-13T09:01:01.729Z,14.85
2022-11-13T09:04:22.490Z,15.77
2022-11-13T09:07:42.993Z,13.82
2022-11-13T09:11:06.798Z,13.05
2022-11-13T09:14:27.481Z,12.63
2022-11-13T09:17:48.026Z,14.63
2022-11-13T09:21:08.773Z,12.02
2022-11-13T09:24:29.357Z,12.45
2022-11-13T09:27:54.637Z,12.07
2022-11-13T09:31:15.946Z,12.43
2022-11-13T09:34:36.812Z,11.73
2022-11-13T09:41:21.401Z,12.13
2022-11-13T09:44:48.450Z,11.82
2022-11-13T09:48:25.585Z,8.75
2022-11-13T09:51:55.433Z,12.55
2022-11-13T09:55:23.501Z,10.32
2022-11-13T09:58:54.190Z,10.23
2022-11-13T10:02:40.763Z,8.98
2022-11-13T10:06:20.202Z,7.97
2022-11-13T10:10:12.363Z,8.75
2022-11-13T10:13:59.788Z,9.02
2022-11-13T10:17:36.267Z,8.95
2022-11-13T10:21:25.971Z,10.63
2022-11-13T10:24:49.819Z,14.13
2022-11-13T10:28:48.723Z,10.45
2022-11-13T10:32:13.276Z,11.00
2022-11-13T10:35:49.698Z,13.15
2022-11-13T10:39:10.977Z,13.77
2022-11-13T10:42:41.929Z,11.88
2022-11-13T10:46:05.937Z,11.70
2022-11-13T10:49:27.558Z,10.15
2022-11-13T10:52:50.466Z,8.82
2022-11-13T10:56:31.940Z,9.35
2022-11-13T10:59:52.536Z,10.85
2022-11-13T11:10:34.013Z,8.98
2022-11-13T11:14:27.653Z,9.38
2022-11-13T11:17:56.710Z,8.90
2022-11-13T11:21:22.503Z,9.35
2022-11-13T11:25:10.630Z,9.55
2022-11-13T11:28:39.699Z,9.07
2022-11-13T11:32:15.605Z,10.30
2022-11-13T11:35:48.002Z,10.93
2022-11-13T11:39:31.378Z,8.88
2022-11-13T11:43:05.588Z,9.70
2022-11-13T11:46:26.158Z,10.73
2022-11-13T12:03:53.287Z,25.23
2022-11-13T12:07:47.271Z,24.98
2022-11-13T12:11:21.930Z,23.73
2022-11-13T12:15:03.766Z,24.40
2022-11-13T12:18:41.659Z,24.27
2022-11-13T12:22:13.223Z,24.88
2022-11-13T12:25:49.694Z,24.88
2022-11-13T12:29:37.299Z,21.00
2022-11-13T12:33:11.770Z,21.38
2022-11-13T12:40:13.012Z,20.70
2022-11-13T12:43:58.260Z,20.30
2022-11-13T12:47:19.327Z,19.92
2022-11-13T12:50:42.889Z,20.10
2022-11-13T12:54:03.796Z,14.82
2022-11-13T12:57:29.999Z,15.98
2022-11-13T13:01:12.358Z,15.10
2022-11-13T13:05:26.815Z,12.48
2022-11-13T13:09:17.147Z,15.20
2022-11-13T13:12:46.554Z,15.93
2022-11-13T13:16:08.956Z,13.85
2022-11-13T13:19:33.619Z,14.43
2022-11-13T13:22:58.950Z,13.65
2022-11-13T13:26:28.749Z,15.13
2022-11-13T13:29:49.990Z,14.18
2022-11-13T13:33:20.687Z,13.20
2022-11-13T13:37:17.203Z,12.07
2022-11-13T13:41:00.797Z,11.98
2022-11-13T13:44:30.076Z,13.20
2022-11-13T13:47:55.827Z,13.20
2022-11-13T13:51:16.683Z,12.77
2022-11-13T13:58:08.581Z,13.38
2022-11-13T14:01:31.514Z,16.38
2022-11-13T14:04:54.481Z,13.68
2022-11-13T14:08:20.411Z,20.08
2022-11-13T14:11:41.220Z,16.38
2022-11-13T14:15:05.202Z,17.75
2022-11-13T14:18:26.188Z,16.38
2022-11-13T14:21:53.931Z,17.90
2022-11-13T14:25:27.814Z,19.10
2022-11-13T14:29:02.001Z,19.38
2022-11-13T14:32:33.036Z,23.27
2022-11-13T14:35:56.542Z,17.85
2022-11-13T14:39:26.243Z,22.35
2022-11-13T14:42:51.594Z,25.23
2022-11-13T14:46:28.904Z,24.00
2022-11-13T14:49:49.980Z,28.38
2022-11-13T14:53:13.728Z,29.55
2022-11-13T15:00:16.264Z,29.02
2022-11-13T15:03:37.382Z,25.20
2022-11-13T15:10:23.281Z,28.20
2022-11-13T15:13:45.218Z,21.50
2022-11-13T15:17:06.087Z,25.67
2022-11-13T15:20:28.722Z,25.83
2022-11-13T15:23:52.071Z,26.73
2022-11-13T15:27:18.474Z,29.13
2022-11-13T15:30:39.076Z,29.15
2022-11-13T15:33:59.888Z,30.88
2022-11-13T15:37:20.661Z,28.52
2022-11-13T15:40:41.087Z,28.77
2022-11-13T15:44:04.815Z,28.30
2022-11-13T15:47:27.437Z,29.77
2022-11-13T15:50:48.399Z,30.27
2022-11-13T15:54:25.072Z,27.88
2022-11-13T15:57:46.256Z,30.70
2022-11-13T16:01:12.978Z,30.80
2022-11-13T16:04:54.484Z,29.65
2022-11-13T16:08:15.999Z,33.60
2022-11-13T16:11:37.268Z,35.10
2022-11-13T16:18:27.727Z,43.72
2022-11-13T16:21:48.737Z,41.95
2022-11-13T16:25:21.166Z,36.90
2022-11-13T16:32:23.190Z,27.98
2022-11-13T16:35:48.254Z,34.05
2022-11-13T16:39:15.572Z,30.20
2022-11-13T16:42:36.162Z,30.85
2022-11-13T16:46:00.144Z,28.05
2022-11-13T16:49:21.038Z,27.83
2022-11-13T16:52:45.008Z,27.88
2022-11-13T16:56:13.265Z,27.33
2022-11-13T16:59:35.600Z,24.98
2022-11-13T17:02:56.273Z,28.23
2022-11-13T17:06:28.365Z,27.60
2022-11-13T17:09:58.901Z,32.42
2022-11-13T17:13:30.208Z,25.00
2022-11-13T17:16:50.864Z,28.95
2022-11-13T17:20:12.268Z,25.38
2022-11-13T17:23:33.123Z,29.77
2022-11-13T17:26:53.604Z,27.80
2022-11-13T17:30:14.650Z,32.70
2022-11-13T17:33:35.347Z,32.15
2022-11-13T17:36:56.164Z,32.63
2022-11-13T17:40:17.206Z,34.75
2022-11-13T17:43:40.514Z,25.92
2022-11-13T17:47:01.171Z,28.23
2022-11-13T17:50:24.693Z,28.98
2022-11-13T17:53:45.412Z,26.77
2022-11-13T18:00:27.458Z,23.98
2022-11-13T18:03:54.143Z,20.80
2022-11-13T18:07:15.424Z,22.73
2022-11-13T18:10:39.243Z,20.55
2022-11-13T18:14:02.188Z,22.05
2022-11-13T18:17:23.437Z,23.02
2022-11-13T18:20:44.437Z,28.88
2022-11-13T18:24:06.427Z,25.15
2022-11-13T18:27:26.923Z,27.55
2022-11-13T18:30:51.954Z,23.70
2022-11-13T18:34:17.594Z,29.38
2022-11-13T18:37:38.066Z,32.90
2022-11-13T18:41:07.890Z,28.48
2022-11-13T18:44:28.654Z,27.17
2022-11-13T18:47:37.048Z,26.30
2022-11-13T18:51:02.589Z,33.92
2022-11-13T18:54:22.924Z,29.60
2022-11-13T18:57:43.494Z,29.90
2022-11-13T19:01:20.469Z,29.85
2022-11-13T19:04:42.990Z,30.40
2022-11-13T19:08:03.960Z,27.05
2022-11-13T19:11:25.636Z,40.20
2022-11-13T19:14:48.014Z,29.67
2022-11-13T19:18:08.796Z,30.27
2022-11-13T19:21:33.548Z,27.63
2022-11-13T19:24:54.367Z,27.52
2022-11-13T19:28:15.108Z,27.02
2022-11-13T19:31:35.769Z,28.65
2022-11-13T19:34:57.051Z,29.17
2022-11-13T19:38:17.872Z,31.23
2022-11-13T19:41:41.024Z,28.95
2022-11-13T19:45:01.715Z,26.52
2022-11-13T19:48:22.264Z,31.10
2022-11-13T19:51:42.758Z,29.27
2022-11-13T19:55:14.261Z,31.88
2022-11-13T19:58:37.847Z,31.40
2022-11-13T20:01:59.169Z,29.13
2022-11-13T20:05:19.715Z,27.88
2022-11-13T20:08:40.796Z,27.88
2022-11-13T20:12:01.322Z,29.17
2022-11-13T20:15:23.097Z,26.83
2022-11-13T20:18:44.882Z,27.13
2022-11-13T20:22:05.552Z,26.73
2022-11-13T20:25:26.187Z,28.30
2022-11-13T20:28:46.920Z,27.52
2022-11-13T20:32:07.399Z,27.92
2022-11-13T20:35:27.887Z,30.58
2022-11-13T20:38:54.278Z,26.25
2022-11-13T20:42:14.856Z,27.02
2022-11-13T20:45:35.467Z,27.65
2022-11-13T20:48:56.258Z,27.48
2022-11-13T20:52:17.149Z,26.08
2022-11-13T20:55:37.761Z,28.42
2022-11-13T20:58:58.469Z,26.95
2022-11-13T21:02:19.067Z,25.73
2022-11-13T21:05:39.478Z,27.95
2022-11-13T21:08:59.995Z,24.88
2022-11-13T21:12:24.169Z,24.98
2022-11-13T21:15:44.761Z,24.50
2022-11-13T21:19:05.481Z,26.33
2022-11-13T21:25:58.888Z,22.63
2022-11-13T21:29:20.756Z,26.45
2022-11-13T21:32:42.845Z,25.50
2022-11-13T21:36:11.623Z,23.40
2022-11-13T21:39:32.263Z,25.50
2022-11-13T21:42:52.662Z,23.63
2022-11-13T21:46:13.101Z,26.27
2022-11-13T21:49:36.397Z,24.73
2022-11-13T21:52:57.206Z,20.77
2022-11-13T21:56:17.583Z,23.42
2022-11-13T21:59:38.153Z,27.10
2022-11-13T22:02:58.646Z,22.33
2022-11-13T22:06:40.619Z,23.38
2022-11-13T22:10:08.318Z,22.30
2022-11-13T22:13:38.215Z,22.02
2022-11-13T22:16:58.711Z,24.88
2022-11-13T22:20:19.287Z,23.40
2022-11-13T22:23:40.062Z,21.90
2022-11-13T22:27:00.975Z,22.08
2022-11-13T22:30:21.868Z,22.55
2022-11-13T22:37:10.470Z,27.38
2022-11-13T22:40:33.264Z,29.67
2022-11-13T22:44:05.977Z,25.42
2022-11-13T22:47:26.486Z,24.77
2022-11-13T22:50:47.086Z,21.52
2022-11-13T22:54:09.976Z,22.98
2022-11-13T22:57:31.722Z,21.35
2022-11-13T23:00:52.457Z,24.38
2022-11-13T23:04:13.723Z,23.40
2022-11-13T23:07:34.378Z,23.02
2022-11-13T23:10:55.324Z,24.73
2022-11-13T23:14:15.762Z,20.80
2022-11-13T23:17:36.523Z,21.35
2022-11-13T23:20:57.204Z,19.52
2022-11-13T23:24:17.777Z,24.75
2022-11-13T23:27:38.512Z,31.83
2022-11-13T23:30:59.330Z,22.35
2022-11-13T23:34:38.411Z,27.70
2022-11-13T23:38:00.788Z,28.38
2022-11-13T23:41:22.562Z,29.52
2022-11-13T23:44:43.545Z,20.25
2022-11-13T23:48:04.893Z,21.25
2022-11-13T23:51:25.840Z,24.33
2022-11-13T23:54:46.504Z,21.38
2022-11-13T23:58:13.099Z,20.73
